01:50
Airports
History
Links
Donate
Help keep this website running!
PayPal
Bitcoin
This page is community maintained. The information is intended for PC simulator navigation or reference.
Always use approved charts for navigation.
EGNM
Leeds Bradford
Leeds Bradford (EGNM)
Yeadon, United Kingdom
(C)
Lat/Lng:53° 51' 57.7" N / 1° 39' 38.8" W
53.866027 / -1.660778
Elevation:681'ft / 208mMSL
ID / ICAO:EGNM
Runways:1
Longest:14-32
Concrete 2,253m / 7,392ft
Controlled:Yes
METAR01:20 GMT 2017-11-24
Altimeter: 29.62
Visibility: 6.2 statute miles
Wind: 7 knots (from 260°)
Temp: 3°c / 37°f
Humidity: %

METAR: EGNM 240120Z 26007KT CAVOK 03/00 Q1003

(Powered by phpweather)
Airport Radio Frequencies
Leeds Information: 118.02
Tower: 120.3
Approach: 125.57
Nearby VORs <50NM
Nearby NDBs
Runway 14 / 32
Dimensions:2253.1 x 46m 7392' x 151'ft
Surface:Concrete
Edge Lights:High intensity
Runway 14 [A]Runway 32 [B]
Heading:137°TH 317°TH
Lat:
Lng:
53° 52' 24.65"N
1° 40' 20.25"W
53° 51' 30.74"N
1° 38' 57.35"W
ALS:CalvertCalvert
TDZ:Yes, lighted
User Notes and Comments
53° 51' 57.7" N / 1° 39' 38.8" W
Distance To
Airport ID:
Nearby Airports
(U) Huddersfield 18.2 NM
EGND SSW 202°
(U) Sherburn in Elmet 18.9 NM
EGCJ ESE 106°
(C) RAF Church Fenton 19.1 NM
EGXG E 96°
(U) Rufforth 20.7 NM
EGYJ ENE 74°
(C) RAF Linton On Ouse 20.9 NM
EGXU NE 52°
(C) RAF Dishforth 21.2 NM
EGXD NNE 27°
(R) RAF Topcliffe 26.1 NM
EGXZ ( WX ) NNE 25°
VFR Chart
Flight Planning at SkyVector.com